This is the latest recevied weather packets stored in our database for station/object OE6ACM-14. If no packets are shown the sender has not sent any weather packets the latest 1 day(s).
| Time | Temp. | Humidity | Pressure | Rain* | Wind** | Luminosity | Snow |
|---|---|---|---|---|---|---|---|
| 1778049301 | 23.89° C | 33% | 920.7 hPa | - | - | - | - |
| 1778048701 | 28.89° C | 26% | 920.6 hPa | - | - | - | - |
| 1778047501 | 26.67° C | 30% | 920.9 hPa | - | - | - | - |
| 1778047201 | 27.78° C | 30% | 920.9 hPa | - | - | - | - |
| 1778046901 | 27.22° C | 30% | 921 hPa | - | - | - | - |
| 1778046301 | 17.78° C | 55% | 921.3 hPa | - | - | - | - |
| 1778046001 | 7.78° C | 77% | 921.7 hPa | - | - | - | - |
| 1778045701 | 6.11° C | 74% | 921.8 hPa | - | - | - | - |
| 1778045101 | 6.67° C | 73% | 921.9 hPa | - | - | - | - |
| 1778044501 | 6.11° C | 73% | 921.9 hPa | - | - | - | - |
| 1778044201 | 5.56° C | 73% | 921.9 hPa | - | - | - | - |
| 1778043901 | 5.56° C | 72% | 922 hPa | - | - | - | - |
| 1778043602 | 6.11° C | 72% | 922 hPa | - | - | - | - |
| 1778043301 | 5.56° C | 72% | 922 hPa | - | - | - | - |
| 1778042701 | 6.67° C | 74% | 921.8 hPa | - | - | - | - |
| 1778042401 | 6.11° C | 75% | 921.9 hPa | - | - | - | - |
| 1778042101 | 5.56° C | 76% | 921.9 hPa | - | - | - | - |
| 1778041801 | 5° C | 76% | 921.9 hPa | - | - | - | - |
| 1778041501 | 4.44° C | 75% | 921.9 hPa | - | - | - | - |
| 1778041201 | 5° C | 75% | 921.8 hPa | - | - | - | - |
| 1778040601 | 4.44° C | 75% | 921.8 hPa | - | - | - | - |
| 1778040301 | 5° C | 75% | 921.7 hPa | - | - | - | - |
| 1778040001 | 4.44° C | 75% | 921.6 hPa | - | - | - | - |
| 1778039701 | 4.44° C | 74% | 921.6 hPa | - | - | - | - |
| 1778039401 | 5° C | 75% | 921.6 hPa | - | - | - | - |
* Rain since midnight (hover to see other rain measurements)
** Current wind speed in m/s (hover to see current wind gust speed)